Time;durP1;ratioP1;P1;durP2;ratioP2;P2;SDS_P1;SDS_P2;PMS_P1;PMS_P2;Temp;Humidity;BMP_temperature;BMP_pressure;BME280_temperature;BME280_humidity;BME280_pressure;Samples;Min_cycle;Max_cycle;Signal;HPM_P1;HPM_P2
2022/07/03 00:01:40;;;;;;;28.50;6.20;;;18.10;26.10;;;;;;5051924;28;20580;-72
2022/07/03 00:04:07;;;;;;;28.20;6.33;;;18.10;26.50;;;;;;5049909;28;20481;-71
2022/07/03 00:06:34;;;;;;;27.67;6.00;;;18.10;26.30;;;;;;5052673;28;20457;-70
2022/07/03 00:09:03;;;;;;;27.37;6.13;;;18.10;26.50;;;;;;5048867;28;20917;-70
2022/07/03 00:11:31;;;;;;;28.17;6.20;;;18.00;26.40;;;;;;5043708;28;20454;-70
2022/07/03 00:13:57;;;;;;;30.97;6.03;;;18.00;26.60;;;;;;5043368;28;20489;-70
2022/07/03 00:16:25;;;;;;;29.40;5.87;;;18.00;26.70;;;;;;5049306;28;20465;-69
2022/07/03 00:18:53;;;;;;;26.87;5.37;;;18.00;26.70;;;;;;5049963;28;20492;-71
2022/07/03 00:21:25;;;;;;;26.87;5.30;;;17.90;27.10;;;;;;5050411;28;20469;-69
2022/07/03 00:23:55;;;;;;;28.50;6.70;;;18.00;27.10;;;;;;5043977;28;20482;-70
2022/07/03 00:26:22;;;;;;;29.17;7.10;;;17.90;27.20;;;;;;5050908;28;20464;-69
2022/07/03 00:28:50;;;;;;;27.67;5.67;;;17.90;27.20;;;;;;5051100;28;20469;-69
2022/07/03 00:31:17;;;;;;;27.90;5.63;;;17.90;27.20;;;;;;5049314;28;20498;-69
2022/07/03 00:33:45;;;;;;;27.57;6.20;;;17.80;27.20;;;;;;5044436;28;20484;-71
2022/07/03 00:36:14;;;;;;;28.20;6.30;;;17.80;27.10;;;;;;5052569;28;20541;-70
2022/07/03 00:38:43;;;;;;;28.27;6.20;;;17.80;27.30;;;;;;5033430;28;20489;-72
2022/07/03 00:41:26;;;;;;;27.97;6.03;;;17.70;27.40;;;;;;5049685;28;20465;-70
2022/07/03 00:43:52;;;;;;;29.20;6.40;;;17.70;27.90;;;;;;5046395;28;20482;-72
2022/07/03 00:46:23;;;;;;;28.00;6.13;;;17.70;27.50;;;;;;5047672;28;20863;-70
2022/07/03 00:48:51;;;;;;;27.40;5.77;;;17.70;27.70;;;;;;5037301;28;20954;-70
2022/07/03 00:51:22;;;;;;;27.40;5.20;;;17.60;27.80;;;;;;5047251;28;20877;-70
2022/07/03 00:53:51;;;;;;;27.90;5.27;;;17.50;28.20;;;;;;5034762;28;20478;-70
2022/07/03 00:56:23;;;;;;;29.10;5.67;;;17.50;28.30;;;;;;5044851;28;20462;-70
2022/07/03 00:58:52;;;;;;;28.77;6.00;;;17.50;28.40;;;;;;5045107;28;20474;-72
2022/07/03 01:01:20;;;;;;;27.10;5.20;;;17.40;28.20;;;;;;5048978;28;20994;-70
2022/07/03 01:03:49;;;;;;;29.00;5.63;;;17.40;28.50;;;;;;5047186;28;20482;-71
2022/07/03 01:06:16;;;;;;;31.77;5.63;;;17.30;28.70;;;;;;5051638;28;20465;-70
2022/07/03 01:08:48;;;;;;;27.20;6.17;;;17.30;28.90;;;;;;5038040;28;21194;-71
2022/07/03 01:11:22;;;;;;;28.53;6.77;;;17.30;29.20;;;;;;5048153;28;20454;-71
2022/07/03 01:14:05;;;;;;;28.97;7.20;;;17.20;29.40;;;;;;5046029;28;21036;-71
2022/07/03 01:16:37;;;;;;;27.90;5.40;;;17.10;29.70;;;;;;5045346;28;20469;-73
2022/07/03 01:19:23;;;;;;;29.53;6.40;;;17.10;29.90;;;;;;5045392;28;20466;-72
2022/07/03 01:22:02;;;;;;;27.40;5.60;;;17.10;30.00;;;;;;5044260;28;20453;-72
2022/07/03 01:25:19;;;;;;;27.40;6.20;;;17.00;30.30;;;;;;5048254;28;21101;-70
2022/07/03 01:28:02;;;;;;;28.10;6.37;;;17.00;30.70;;;;;;5058487;28;20457;-70
2022/07/03 01:30:32;;;;;;;32.30;7.27;;;17.00;31.00;;;;;;5047986;28;20462;-71
2022/07/03 01:33:03;;;;;;;28.20;6.10;;;17.00;30.90;;;;;;5059028;28;20489;-70
2022/07/03 01:35:34;;;;;;;27.40;6.10;;;17.00;31.10;;;;;;5048418;28;20457;-71
2022/07/03 01:38:09;;;;;;;29.00;6.70;;;16.90;31.30;;;;;;5056923;28;20507;-73
2022/07/03 01:40:38;;;;;;;29.20;7.27;;;16.80;31.90;;;;;;5049558;28;20833;-71
2022/07/03 01:43:08;;;;;;;30.00;6.43;;;16.80;31.60;;;;;;5045085;28;20481;-71
2022/07/03 01:45:40;;;;;;;28.17;6.77;;;16.80;31.90;;;;;;5046184;28;20470;-71
2022/07/03 01:48:08;;;;;;;29.50;6.53;;;16.80;32.20;;;;;;5047334;28;20549;-72
2022/07/03 01:50:36;;;;;;;31.47;7.77;;;16.70;32.60;;;;;;5042777;28;20478;-71
2022/07/03 01:53:06;;;;;;;30.50;7.63;;;16.70;32.70;;;;;;5051797;28;20476;-71
2022/07/03 01:55:35;;;;;;;28.60;7.57;;;16.70;32.70;;;;;;5048389;28;20473;-73
2022/07/03 01:58:02;;;;;;;27.57;6.63;;;16.60;33.00;;;;;;5040086;28;20967;-75
2022/07/03 02:00:31;;;;;;;29.73;7.87;;;16.60;33.10;;;;;;5029855;28;20482;-73
2022/07/03 02:03:00;;;;;;;29.07;7.70;;;16.60;33.30;;;;;;5040017;28;20476;-73
2022/07/03 02:05:34;;;;;;;28.67;7.90;;;16.60;33.90;;;;;;5046440;28;21012;-73
2022/07/03 02:08:18;;;;;;;27.37;6.97;;;16.60;34.20;;;;;;5047656;28;20462;-73
2022/07/03 02:10:52;;;;;;;27.63;7.30;;;16.50;34.70;;;;;;5045115;28;20458;-71
2022/07/03 02:13:24;;;;;;;30.53;7.67;;;16.50;34.70;;;;;;5047635;28;20483;-72
2022/07/03 02:15:53;;;;;;;29.13;8.37;;;16.50;34.70;;;;;;5043007;28;20457;-73
2022/07/03 02:18:28;;;;;;;27.90;6.80;;;16.50;34.80;;;;;;5053125;28;20477;-72
2022/07/03 02:21:04;;;;;;;31.70;7.33;;;16.50;34.90;;;;;;5043890;28;20486;-73
2022/07/03 02:23:37;;;;;;;32.13;6.83;;;16.40;35.20;;;;;;5047918;28;20485;-74
2022/07/03 02:26:09;;;;;;;28.70;7.10;;;16.40;35.20;;;;;;5039752;28;20471;-74
2022/07/03 02:28:50;;;;;;;29.10;7.00;;;16.40;35.30;;;;;;5039031;28;20463;-74
2022/07/03 02:31:22;;;;;;;29.53;6.70;;;16.40;35.40;;;;;;5043140;28;20492;-74
2022/07/03 02:33:51;;;;;;;28.40;8.00;;;16.40;35.20;;;;;;5046171;28;20865;-74
2022/07/03 02:36:22;;;;;;;28.37;6.90;;;16.40;35.30;;;;;;5047225;28;20461;-74
2022/07/03 02:38:56;;;;;;;30.33;6.47;;;16.30;35.70;;;;;;5054301;28;20831;-74
2022/07/03 02:41:29;;;;;;;27.80;6.63;;;16.30;35.90;;;;;;5041438;28;20457;-72
2022/07/03 02:44:00;;;;;;;29.07;6.60;;;16.30;36.30;;;;;;5043386;28;20482;-72
2022/07/03 02:46:50;;;;;;;28.27;5.87;;;16.20;36.40;;;;;;5046690;28;20472;-72
2022/07/03 02:49:28;;;;;;;31.50;6.30;;;16.20;36.20;;;;;;5046610;28;20462;-72
2022/07/03 02:52:03;;;;;;;30.60;7.57;;;16.10;36.90;;;;;;5047540;28;20487;-73
2022/07/03 02:54:37;;;;;;;28.30;6.20;;;16.10;36.10;;;;;;5052558;28;20491;-73
2022/07/03 02:57:08;;;;;;;29.43;6.40;;;16.10;36.20;;;;;;5047654;28;20473;-73
2022/07/03 02:59:46;;;;;;;28.93;6.23;;;16.00;36.10;;;;;;5049237;28;20737;-74
2022/07/03 03:02:23;;;;;;;29.70;6.63;;;16.00;36.00;;;;;;5052466;28;20486;-74
2022/07/03 03:04:57;;;;;;;30.90;6.93;;;16.00;36.20;;;;;;5047853;28;20487;-74
2022/07/03 03:07:29;;;;;;;32.17;6.67;;;16.00;36.10;;;;;;5042299;28;20462;-74
2022/07/03 03:09:58;;;;;;;30.33;6.77;;;15.90;36.20;;;;;;5044874;28;20466;-72
2022/07/03 03:12:32;;;;;;;29.80;6.60;;;15.90;36.20;;;;;;5052727;28;20527;-72
2022/07/03 03:15:03;;;;;;;29.73;6.43;;;15.80;36.40;;;;;;5049533;28;20493;-73
2022/07/03 03:17:40;;;;;;;32.13;6.70;;;15.80;36.10;;;;;;5050599;28;20462;-72
2022/07/03 03:20:10;;;;;;;29.53;6.20;;;15.80;36.40;;;;;;5045466;28;20481;-73
2022/07/03 03:22:52;;;;;;;29.97;6.20;;;15.80;36.30;;;;;;5056728;28;20480;-72
2022/07/03 03:25:19;;;;;;;29.80;6.63;;;15.80;36.50;;;;;;5051014;28;20458;-72
2022/07/03 03:27:46;;;;;;;30.90;6.57;;;15.80;36.60;;;;;;5038911;28;20821;-72
2022/07/03 03:30:13;;;;;;;31.23;6.60;;;15.80;36.90;;;;;;5046673;28;20461;-73
2022/07/03 03:32:42;;;;;;;30.23;6.37;;;15.80;37.20;;;;;;5040366;28;20476;-72
2022/07/03 03:35:10;;;;;;;31.20;6.17;;;15.90;37.70;;;;;;5050338;28;20463;-72
2022/07/03 03:37:37;;;;;;;29.73;6.40;;;15.90;37.00;;;;;;5049933;28;20818;-72
2022/07/03 03:40:04;;;;;;;31.07;6.40;;;15.90;36.90;;;;;;5046680;28;20483;-74
2022/07/03 03:42:31;;;;;;;28.47;5.80;;;15.90;37.10;;;;;;5048616;28;20461;-74
2022/07/03 03:44:58;;;;;;;30.50;6.33;;;16.00;37.10;;;;;;5032826;28;21030;-75
2022/07/03 03:47:25;;;;;;;31.10;6.67;;;15.90;37.20;;;;;;5044478;28;20472;-74
2022/07/03 03:49:53;;;;;;;29.60;6.30;;;16.00;36.90;;;;;;5048083;28;20462;-72
2022/07/03 03:52:20;;;;;;;29.67;5.87;;;15.90;36.90;;;;;;5052303;28;21131;-72
2022/07/03 03:54:47;;;;;;;31.00;5.77;;;15.90;37.10;;;;;;5055418;28;20576;-73
2022/07/03 03:57:19;;;;;;;31.27;6.00;;;15.90;37.00;;;;;;5047468;28;20469;-73
2022/07/03 03:59:46;;;;;;;30.30;6.93;;;15.90;37.00;;;;;;5045922;28;20488;-72
2022/07/03 04:02:13;;;;;;;29.13;6.30;;;15.90;37.80;;;;;;5042078;28;20480;-72
2022/07/03 04:04:40;;;;;;;31.60;6.20;;;15.90;37.30;;;;;;5049179;28;20492;-72
2022/07/03 04:07:09;;;;;;;30.00;5.37;;;15.90;37.50;;;;;;5047315;28;20472;-72
2022/07/03 04:09:35;;;;;;;29.30;6.03;;;15.90;37.40;;;;;;5053701;28;20472;-72
2022/07/03 04:12:03;;;;;;;29.13;5.73;;;15.90;37.30;;;;;;5049758;28;20544;-71
2022/07/03 04:14:30;;;;;;;30.07;5.93;;;15.90;37.60;;;;;;5035682;28;20567;-71
2022/07/03 04:16:56;;;;;;;33.03;5.60;;;15.90;37.30;;;;;;5041837;28;20464;-71
2022/07/03 04:19:24;;;;;;;29.03;6.07;;;15.90;37.20;;;;;;5046960;28;20446;-72
2022/07/03 04:21:51;;;;;;;30.57;6.30;;;16.00;37.10;;;;;;5049418;28;20462;-72
2022/07/03 04:24:19;;;;;;;32.73;7.00;;;16.00;37.10;;;;;;5047080;28;20508;-73
2022/07/03 04:26:46;;;;;;;29.67;6.40;;;16.10;37.70;;;;;;5054727;28;20915;-72
2022/07/03 04:29:13;;;;;;;30.20;6.37;;;16.20;38.00;;;;;;5044019;28;20543;-71
2022/07/03 04:31:40;;;;;;;28.40;6.53;;;16.20;37.70;;;;;;5049722;28;20476;-71
2022/07/03 04:34:07;;;;;;;28.07;5.43;;;16.30;37.70;;;;;;5048854;28;20485;-71
2022/07/03 04:36:34;;;;;;;30.00;5.50;;;16.80;39.60;;;;;;5046585;28;20472;-72
2022/07/03 04:39:00;;;;;;;31.07;5.10;;;17.90;38.20;;;;;;5046700;28;20807;-72
2022/07/03 04:41:28;;;;;;;30.60;4.67;;;19.20;34.40;;;;;;5064137;28;20516;-71
2022/07/03 04:43:55;;;;;;;30.70;4.33;;;20.40;30.50;;;;;;5051628;28;20477;-71
2022/07/03 04:46:23;;;;;;;29.27;4.10;;;21.30;26.80;;;;;;5055475;28;20465;-71
2022/07/03 04:48:49;;;;;;;30.93;4.43;;;22.20;24.00;;;;;;5043669;28;20528;-73
2022/07/03 04:51:16;;;;;;;29.47;4.50;;;23.00;21.20;;;;;;5048480;28;20480;-71
2022/07/03 04:53:43;;;;;;;28.93;4.00;;;23.80;19.30;;;;;;5049930;28;20492;-71
2022/07/03 04:56:10;;;;;;;28.50;3.90;;;24.40;17.40;;;;;;5065780;28;20460;-71
2022/07/03 04:58:38;;;;;;;29.50;4.23;;;24.90;16.00;;;;;;5049060;28;20470;-71
2022/07/03 05:01:05;;;;;;;29.60;4.20;;;24.60;15.60;;;;;;5048366;28;20500;-71
2022/07/03 05:03:32;;;;;;;29.87;3.67;;;24.80;15.90;;;;;;5048015;28;21230;-71
2022/07/03 05:05:59;;;;;;;28.60;3.97;;;25.70;14.60;;;;;;5048702;28;21009;-71
2022/07/03 05:08:26;;;;;;;31.67;4.93;;;26.50;13.10;;;;;;5043740;28;20476;-72
2022/07/03 05:10:52;;;;;;;27.90;3.80;;;27.40;11.40;;;;;;5051303;28;20926;-71
2022/07/03 05:13:19;;;;;;;30.13;4.10;;;28.20;10.50;;;;;;5051349;28;20912;-71
2022/07/03 05:15:47;;;;;;;31.50;3.97;;;28.90;8.90;;;;;;5048668;28;20477;-71
2022/07/03 05:18:14;;;;;;;26.80;3.87;;;29.50;7.50;;;;;;5051735;28;20986;-71
2022/07/03 05:20:41;;;;;;;26.90;3.63;;;30.20;6.70;;;;;;5055808;28;21012;-71
2022/07/03 05:23:08;;;;;;;28.43;3.90;;;30.70;5.30;;;;;;5048812;28;20875;-72
2022/07/03 05:25:35;;;;;;;27.13;3.63;;;31.30;4.80;;;;;;5046263;28;20466;-72
2022/07/03 05:28:02;;;;;;;27.20;4.00;;;31.90;4.10;;;;;;5055283;28;20568;-72
2022/07/03 05:30:29;;;;;;;28.07;3.50;;;32.60;3.00;;;;;;5046603;28;20457;-72
2022/07/03 05:32:57;;;;;;;26.53;4.13;;;33.10;2.40;;;;;;5048629;28;20856;-71
2022/07/03 05:35:24;;;;;;;25.67;3.37;;;33.70;1.30;;;;;;5047699;28;20464;-73
2022/07/03 05:37:51;;;;;;;27.00;3.70;;;34.20;1.00;;;;;;5049911;28;20876;-73
2022/07/03 05:40:18;;;;;;;27.37;3.50;;;34.90;1.00;;;;;;5044778;28;21069;-73
2022/07/03 05:42:44;;;;;;;26.27;3.63;;;35.30;1.00;;;;;;5048537;28;21224;-73
2022/07/03 05:45:12;;;;;;;26.87;3.13;;;35.80;1.00;;;;;;5047662;28;20458;-71
2022/07/03 05:47:38;;;;;;;25.20;3.30;;;36.30;1.00;;;;;;5049327;28;20462;-71
2022/07/03 05:50:08;;;;;;;25.70;3.50;;;36.80;1.00;;;;;;5045107;28;20481;-71
2022/07/03 05:52:35;;;;;;;25.60;3.77;;;37.40;1.00;;;;;;5046437;28;20461;-71
2022/07/03 05:55:02;;;;;;;25.43;3.67;;;37.90;1.00;;;;;;5047841;28;20485;-75
2022/07/03 05:57:29;;;;;;;25.97;3.73;;;38.50;1.00;;;;;;5054530;28;20468;-74
2022/07/03 05:59:55;;;;;;;25.60;3.77;;;38.90;1.00;;;;;;5045580;28;20466;-74
2022/07/03 06:02:22;;;;;;;24.77;3.27;;;39.40;1.00;;;;;;5043383;28;20484;-73
2022/07/03 06:04:49;;;;;;;23.60;3.30;;;40.00;1.00;;;;;;5047794;28;20482;-72
2022/07/03 06:07:17;;;;;;;27.10;3.37;;;40.40;1.00;;;;;;5055598;28;20468;-68
2022/07/03 06:09:44;;;;;;;24.17;3.17;;;40.80;1.00;;;;;;5034979;28;20462;-69
2022/07/03 06:12:11;;;;;;;23.67;3.70;;;41.30;1.00;;;;;;5044857;28;20454;-68
2022/07/03 06:14:38;;;;;;;24.80;3.10;;;41.60;1.00;;;;;;5047362;28;20469;-68
2022/07/03 06:17:05;;;;;;;22.57;2.73;;;42.10;1.00;;;;;;5046149;28;20466;-67
2022/07/03 06:19:32;;;;;;;24.17;2.90;;;42.80;1.00;;;;;;5048409;28;20588;-67
2022/07/03 06:21:59;;;;;;;26.83;3.63;;;43.20;1.00;;;;;;5044325;28;21032;-67
2022/07/03 06:24:27;;;;;;;23.40;2.63;;;43.60;1.00;;;;;;5042385;28;21010;-68
2022/07/03 06:26:54;;;;;;;23.60;3.00;;;43.80;1.00;;;;;;5050761;28;20462;-68
2022/07/03 06:29:20;;;;;;;22.10;2.70;;;44.10;1.00;;;;;;5047624;28;20504;-67
2022/07/03 06:31:47;;;;;;;23.30;2.80;;;44.50;1.00;;;;;;5045807;28;20485;-68
2022/07/03 06:34:14;;;;;;;22.80;2.60;;;44.90;1.00;;;;;;5051029;28;20485;-68
2022/07/03 06:36:41;;;;;;;22.10;2.67;;;45.30;1.00;;;;;;5050460;28;20463;-67
2022/07/03 06:39:08;;;;;;;22.43;2.83;;;45.90;1.00;;;;;;5052079;28;21013;-68
2022/07/03 06:41:36;;;;;;;22.93;2.80;;;46.40;1.00;;;;;;5050356;28;20470;-68
2022/07/03 06:44:02;;;;;;;21.90;2.73;;;47.00;1.00;;;;;;5047699;28;20481;-68
2022/07/03 06:46:29;;;;;;;21.30;2.50;;;47.40;1.00;;;;;;5058288;28;20468;-67
2022/07/03 06:48:56;;;;;;;22.37;2.80;;;47.70;1.00;;;;;;5047697;28;21084;-67
2022/07/03 06:51:23;;;;;;;21.37;2.17;;;48.20;1.00;;;;;;5049721;28;20464;-68
2022/07/03 06:53:49;;;;;;;24.03;2.70;;;48.50;1.00;;;;;;5047209;28;20494;-68
2022/07/03 06:56:16;;;;;;;23.17;2.80;;;48.80;1.00;;;;;;5046455;28;20468;-68
2022/07/03 06:58:44;;;;;;;21.10;2.30;;;49.10;1.00;;;;;;5055414;28;20465;-68
2022/07/03 07:01:11;;;;;;;20.77;2.23;;;49.20;1.00;;;;;;5055792;28;20483;-68
2022/07/03 07:03:38;;;;;;;21.13;2.37;;;49.40;1.00;;;;;;5054105;28;20490;-68
2022/07/03 07:06:05;;;;;;;21.90;2.30;;;49.60;1.00;;;;;;5051943;28;20462;-70
2022/07/03 07:08:32;;;;;;;21.03;2.27;;;49.70;1.00;;;;;;5052914;28;20458;-68
2022/07/03 07:10:58;;;;;;;21.00;2.60;;;50.00;1.00;;;;;;5049942;28;20465;-69
2022/07/03 07:13:25;;;;;;;20.77;2.23;;;50.40;1.00;;;;;;5051964;28;20477;-68
2022/07/03 07:15:53;;;;;;;20.30;2.27;;;50.60;1.00;;;;;;5053092;28;20457;-68
2022/07/03 07:18:20;;;;;;;21.40;1.90;;;50.90;1.00;;;;;;5055262;28;20485;-68
2022/07/03 07:20:47;;;;;;;21.00;2.30;;;51.30;1.00;;;;;;5049243;28;20477;-69
2022/07/03 07:23:14;;;;;;;20.33;2.10;;;51.70;1.00;;;;;;5046365;28;20492;-67
2022/07/03 07:25:40;;;;;;;21.23;2.10;;;51.80;1.00;;;;;;5045749;28;20465;-67
2022/07/03 07:28:07;;;;;;;20.07;2.10;;;52.10;1.00;;;;;;5041771;28;20466;-69
2022/07/03 07:30:34;;;;;;;19.63;1.67;;;52.50;1.00;;;;;;5048263;28;20474;-67
2022/07/03 07:33:02;;;;;;;20.40;1.90;;;52.70;1.00;;;;;;5046179;28;20462;-69
2022/07/03 07:35:29;;;;;;;19.73;2.30;;;53.10;1.00;;;;;;5051530;28;20457;-68
2022/07/03 07:37:56;;;;;;;19.33;1.97;;;53.40;1.00;;;;;;5049018;28;20488;-68
2022/07/03 07:40:22;;;;;;;19.67;2.00;;;53.80;1.00;;;;;;5048443;28;20462;-69
2022/07/03 07:42:49;;;;;;;19.10;1.63;;;54.00;1.00;;;;;;5043367;28;20461;-69
2022/07/03 07:45:16;;;;;;;21.53;1.97;;;54.20;1.00;;;;;;5047829;28;20473;-68
2022/07/03 07:47:43;;;;;;;19.17;1.60;;;54.50;1.00;;;;;;5054385;28;20470;-68
2022/07/03 07:50:12;;;;;;;19.40;1.60;;;54.90;1.00;;;;;;5049796;28;20469;-69
2022/07/03 07:52:38;;;;;;;19.47;1.90;;;55.40;1.00;;;;;;5050622;28;20449;-68
2022/07/03 07:55:07;;;;;;;20.00;1.47;;;55.50;1.00;;;;;;5050711;28;20481;-68
2022/07/03 07:57:37;;;;;;;20.20;1.80;;;55.70;1.00;;;;;;5044155;28;20465;-67
2022/07/03 08:00:08;;;;;;;19.17;1.80;;;55.90;1.00;;;;;;5045968;28;20513;-68
2022/07/03 08:05:37;;;;;;;19.30;1.83;;;56.50;1.00;;;;;;5055236;28;20977;-67
2022/07/03 08:08:05;;;;;;;20.57;1.50;;;56.70;1.00;;;;;;5047059;28;20461;-68
2022/07/03 08:10:36;;;;;;;18.60;1.40;;;57.00;1.00;;;;;;5039671;28;20465;-68
2022/07/03 08:13:03;;;;;;;18.00;1.43;;;57.00;1.00;;;;;;5044072;28;20552;-69
2022/07/03 08:15:30;;;;;;;19.40;1.60;;;57.30;1.00;;;;;;5048611;28;20469;-69
2022/07/03 08:17:57;;;;;;;18.20;1.60;;;57.30;1.00;;;;;;5052041;28;20461;-68
2022/07/03 08:20:25;;;;;;;17.73;1.40;;;57.40;1.00;;;;;;5043324;28;20466;-69
2022/07/03 08:22:52;;;;;;;18.13;1.70;;;57.60;1.00;;;;;;5041657;28;20512;-69
2022/07/03 08:25:19;;;;;;;17.77;1.40;;;57.80;1.00;;;;;;5044986;28;20820;-67
2022/07/03 08:27:46;;;;;;;18.90;1.43;;;58.10;1.00;;;;;;5048341;28;20468;-70
2022/07/03 08:30:14;;;;;;;17.53;1.30;;;58.30;1.00;;;;;;5036452;28;20496;-70
2022/07/03 08:32:41;;;;;;;17.43;1.10;;;58.40;1.00;;;;;;5041347;28;20191;-70
2022/07/03 08:35:08;;;;;;;17.50;1.27;;;58.70;1.00;;;;;;5053790;28;20253;-68
2022/07/03 08:37:36;;;;;;;17.30;1.25;;;59.10;1.00;;;;;;5041699;28;20203;-68
2022/07/03 08:40:04;;;;;;;17.47;1.30;;;59.30;1.00;;;;;;5045652;28;20207;-69
2022/07/03 08:42:33;;;;;;;17.20;1.30;;;59.60;1.00;;;;;;5047628;28;20207;-69
2022/07/03 08:45:02;;;;;;;17.52;1.38;;;59.60;1.00;;;;;;5038742;28;20227;-70
2022/07/03 08:47:32;;;;;;;16.90;1.00;;;59.60;1.00;;;;;;5047077;28;20214;-70
2022/07/03 08:50:01;;;;;;;18.65;1.02;;;59.70;1.00;;;;;;5049062;28;20207;-69
2022/07/03 08:52:29;;;;;;;17.35;1.40;;;59.80;1.00;;;;;;5059372;28;20219;-69
2022/07/03 08:54:57;;;;;;;17.90;1.40;;;60.00;1.00;;;;;;5049487;28;20215;-69
2022/07/03 08:57:25;;;;;;;16.88;1.10;;;60.10;1.00;;;;;;5042612;28;20667;-70
2022/07/03 08:59:53;;;;;;;17.38;1.25;;;60.20;1.00;;;;;;5054231;28;20195;-69
2022/07/03 09:02:22;;;;;;;17.25;1.00;;;60.40;1.00;;;;;;5047056;28;20231;-70
2022/07/03 09:04:49;;;;;;;16.98;1.20;;;60.30;1.00;;;;;;5037936;28;20215;-70
2022/07/03 09:07:20;;;;;;;18.00;1.10;;;60.50;1.00;;;;;;5048124;28;20199;-68
2022/07/03 09:09:47;;;;;;;16.80;1.20;;;60.50;1.00;;;;;;5052763;28;20219;-68
2022/07/03 09:12:16;;;;;;;16.98;1.13;;;60.60;1.00;;;;;;5042211;28;20199;-66
2022/07/03 09:14:42;;;;;;;17.70;1.33;;;60.30;1.00;;;;;;5042275;28;20225;-68
2022/07/03 09:17:10;;;;;;;17.23;1.67;;;60.00;1.00;;;;;;5040636;28;20231;-68
2022/07/03 09:19:41;;;;;;;17.58;1.40;;;59.90;1.00;;;;;;5040790;28;20243;-69
2022/07/03 09:22:21;;;;;;;17.65;1.20;;;59.60;1.00;;;;;;5043041;28;20219;-68
2022/07/03 09:24:48;;;;;;;17.60;1.40;;;58.90;1.00;;;;;;5041459;28;20218;-70
2022/07/03 09:27:19;;;;;;;18.80;1.27;;;57.40;1.00;;;;;;5045544;28;20192;-70
2022/07/03 09:29:52;;;;;;;18.77;1.30;;;55.30;1.00;;;;;;5042260;28;20965;-68
2022/07/03 09:32:24;;;;;;;21.30;1.30;;;53.00;1.00;;;;;;5041390;28;20473;-69
2022/07/03 09:35:03;;;;;;;19.67;1.50;;;50.90;1.00;;;;;;5041851;28;20493;-67
2022/07/03 09:37:33;;;;;;;20.27;1.77;;;48.60;1.00;;;;;;5044607;28;20461;-67
2022/07/03 09:39:59;;;;;;;19.97;1.47;;;46.60;1.00;;;;;;5046672;28;20464;-69
2022/07/03 09:42:27;;;;;;;20.70;1.87;;;44.80;1.00;;;;;;5048439;28;20486;-67
2022/07/03 09:44:55;;;;;;;21.17;2.30;;;43.20;1.00;;;;;;5044113;28;20481;-69
2022/07/03 09:47:24;;;;;;;23.37;1.90;;;41.90;1.00;;;;;;5040142;28;20488;-69
2022/07/03 09:49:54;;;;;;;22.90;2.00;;;40.60;1.00;;;;;;5044380;28;20484;-67
2022/07/03 09:52:33;;;;;;;22.43;2.50;;;39.40;1.00;;;;;;5042380;28;20454;-67
2022/07/03 09:55:03;;;;;;;22.87;2.47;;;38.40;1.00;;;;;;5037739;28;20509;-68
2022/07/03 09:57:31;;;;;;;22.57;2.10;;;37.60;1.00;;;;;;5041770;28;20527;-67
2022/07/03 10:00:11;;;;;;;24.00;2.50;;;37.00;1.00;;;;;;5038772;28;20471;-67
2022/07/03 10:02:51;;;;;;;23.00;2.90;;;36.30;1.00;;;;;;5043139;28;20673;-66
2022/07/03 10:05:18;;;;;;;24.33;2.80;;;35.90;1.00;;;;;;5039884;28;21024;-69
2022/07/03 10:07:53;;;;;;;23.13;2.50;;;35.40;1.00;;;;;;5042253;28;20450;-70
2022/07/03 10:10:21;;;;;;;23.13;2.27;;;35.00;1.00;;;;;;5043580;28;20477;-68
2022/07/03 10:12:52;;;;;;;25.17;3.27;;;34.80;1.00;;;;;;5039974;28;20915;-68
2022/07/03 10:15:19;;;;;;;25.00;3.00;;;34.60;1.00;;;;;;5041796;28;20466;-68
2022/07/03 10:17:49;;;;;;;23.87;2.40;;;34.30;1.00;;;;;;5042771;28;20986;-69
2022/07/03 10:20:20;;;;;;;23.80;2.83;;;34.00;1.00;;;;;;5038415;28;20461;-70
2022/07/03 10:22:49;;;;;;;23.50;2.30;;;33.80;1.00;;;;;;5040502;28;20488;-70
2022/07/03 10:25:18;;;;;;;23.40;2.20;;;33.70;1.00;;;;;;5047730;28;20466;-70
2022/07/03 10:27:46;;;;;;;23.50;2.30;;;33.50;1.00;;;;;;5040398;28;20473;-72
2022/07/03 10:30:16;;;;;;;24.30;2.37;;;33.20;1.00;;;;;;5048792;28;20469;-70
2022/07/03 10:32:44;;;;;;;23.57;2.47;;;33.00;1.00;;;;;;5049754;28;20997;-70
2022/07/03 10:35:13;;;;;;;23.27;2.33;;;32.70;1.00;;;;;;5043970;28;20470;-72
2022/07/03 10:37:50;;;;;;;24.53;2.60;;;32.50;1.00;;;;;;5029967;28;20467;-72
2022/07/03 10:46:15;;;;;;;24.40;2.37;;;32.20;1.00;;;;;;5052890;28;21015;-70
2022/07/03 10:49:03;;;;;;;23.93;3.13;;;32.00;1.00;;;;;;5047938;28;20469;-69
2022/07/03 10:51:32;;;;;;;23.07;2.30;;;31.80;1.00;;;;;;5032436;28;20458;-70
2022/07/03 10:54:16;;;;;;;23.00;2.20;;;31.70;1.00;;;;;;5045762;28;20492;-70
2022/07/03 10:57:05;;;;;;;23.57;2.60;;;31.60;1.00;;;;;;5054559;28;20457;-70
2022/07/03 11:00:24;;;;;;;31.63;2.33;;;31.50;1.00;;;;;;5047975;28;20461;-70
2022/07/03 11:02:53;;;;;;;23.73;2.30;;;31.40;1.00;;;;;;5035202;28;20497;-71
2022/07/03 11:05:24;;;;;;;24.40;2.27;;;31.30;1.00;;;;;;5048465;28;20541;-70
2022/07/03 11:08:08;;;;;;;24.07;2.50;;;31.20;1.00;;;;;;5044508;28;20473;-71
2022/07/03 11:10:40;;;;;;;23.47;1.90;;;31.10;1.00;;;;;;5041140;28;20545;-70
2022/07/03 11:13:20;;;;;;;26.30;2.13;;;31.00;1.00;;;;;;5049059;28;20528;-71
2022/07/03 11:15:53;;;;;;;23.70;2.33;;;30.80;1.00;;;;;;5048206;28;20457;-71
2022/07/03 11:18:27;;;;;;;23.90;2.27;;;30.70;1.00;;;;;;5047225;28;20449;-71
2022/07/03 11:21:36;;;;;;;23.80;2.47;;;30.60;1.00;;;;;;5043813;28;20454;-72
2022/07/03 11:24:37;;;;;;;24.50;2.10;;;30.50;1.00;;;;;;5042459;28;20569;-70
2022/07/03 11:27:19;;;;;;;24.20;2.60;;;30.40;1.00;;;;;;5043110;28;20505;-72
2022/07/03 11:29:55;;;;;;;25.50;2.43;;;30.30;1.00;;;;;;5046815;28;20508;-70
2022/07/03 11:32:45;;;;;;;24.20;2.13;;;30.20;1.00;;;;;;5048984;28;20974;-70
2022/07/03 11:35:46;;;;;;;24.37;2.13;;;30.10;1.00;;;;;;5052326;28;20535;-70
2022/07/03 11:38:16;;;;;;;24.87;2.57;;;30.10;1.00;;;;;;5040720;28;21103;-71
2022/07/03 11:40:46;;;;;;;24.50;2.10;;;30.00;1.00;;;;;;5052773;28;20461;-71
2022/07/03 11:43:13;;;;;;;24.30;2.13;;;29.90;1.00;;;;;;5040920;28;21048;-70
2022/07/03 11:45:41;;;;;;;24.70;2.27;;;29.90;1.00;;;;;;5040043;28;20517;-70
2022/07/03 11:48:10;;;;;;;24.00;1.90;;;29.80;1.00;;;;;;5045661;28;20469;-70
2022/07/03 11:50:38;;;;;;;23.90;2.27;;;29.80;1.00;;;;;;5063919;28;20457;-70
2022/07/03 11:53:25;;;;;;;25.50;2.60;;;29.80;1.00;;;;;;5055766;28;20489;-70
2022/07/03 11:55:55;;;;;;;25.20;2.23;;;29.80;1.00;;;;;;5051711;28;20887;-70
2022/07/03 11:58:23;;;;;;;23.77;2.20;;;29.60;1.00;;;;;;5040224;28;20464;-70
2022/07/03 12:00:51;;;;;;;24.90;2.40;;;29.60;1.00;;;;;;5052399;28;21024;-70
2022/07/03 12:03:23;;;;;;;24.77;3.00;;;29.50;1.00;;;;;;5048436;28;20482;-71
2022/07/03 12:05:54;;;;;;;27.10;2.37;;;29.50;1.00;;;;;;5050673;28;20512;-70
2022/07/03 12:08:29;;;;;;;24.97;2.70;;;29.40;1.00;;;;;;5051640;28;20460;-70
2022/07/03 12:11:01;;;;;;;24.27;2.50;;;29.40;1.00;;;;;;5051270;28;20941;-70
2022/07/03 12:13:30;;;;;;;25.00;2.83;;;29.30;1.00;;;;;;5047366;28;20485;-70
2022/07/03 12:16:05;;;;;;;24.83;2.20;;;29.30;1.00;;;;;;5049863;28;20553;-70
2022/07/03 12:18:50;;;;;;;23.80;2.23;;;29.20;1.00;;;;;;5051490;28;20476;-70
2022/07/03 12:21:18;;;;;;;24.37;2.50;;;29.30;2.30;;;;;;5050919;28;20458;-71
2022/07/03 12:23:49;;;;;;;25.00;3.13;;;29.30;1.00;;;;;;5038489;28;20487;-70
2022/07/03 12:26:28;;;;;;;26.60;2.80;;;29.20;1.00;;;;;;5049911;28;20470;-70
2022/07/03 12:28:55;;;;;;;23.80;2.70;;;29.20;1.00;;;;;;5051210;28;20466;-70
2022/07/03 12:31:21;;;;;;;25.13;2.47;;;29.20;2.60;;;;;;5057358;28;20479;-72
2022/07/03 12:33:48;;;;;;;24.63;3.60;;;29.20;1.00;;;;;;5042905;28;20479;-70
2022/07/03 12:36:15;;;;;;;24.13;2.47;;;29.20;1.60;;;;;;5048978;28;20466;-70
2022/07/03 12:38:42;;;;;;;24.37;2.40;;;29.20;2.60;;;;;;5051371;28;20553;-70
2022/07/03 12:41:11;;;;;;;26.43;2.73;;;29.10;1.20;;;;;;5049834;28;20466;-70
2022/07/03 12:43:43;;;;;;;25.40;2.70;;;29.10;1.00;;;;;;5050486;28;20862;-70
2022/07/03 12:46:20;;;;;;;25.03;2.90;;;29.10;1.40;;;;;;5040644;28;20473;-70
2022/07/03 12:48:52;;;;;;;24.13;2.70;;;29.10;2.20;;;;;;5047272;28;20580;-70
2022/07/03 12:51:38;;;;;;;23.53;2.47;;;29.10;2.20;;;;;;5051302;28;20457;-69
2022/07/03 12:54:05;;;;;;;23.80;2.77;;;29.00;3.50;;;;;;5049322;28;20478;-70
2022/07/03 12:56:33;;;;;;;24.63;2.47;;;29.10;3.30;;;;;;5053172;28;20457;-70
2022/07/03 12:59:18;;;;;;;23.70;2.37;;;29.00;1.50;;;;;;5045123;28;20519;-70
2022/07/03 13:01:45;;;;;;;24.57;2.60;;;29.00;2.30;;;;;;5050873;28;20490;-70
2022/07/03 13:04:17;;;;;;;24.23;2.40;;;29.00;2.50;;;;;;5039727;28;21038;-70
2022/07/03 13:06:46;;;;;;;27.20;3.10;;;29.00;2.10;;;;;;5045029;28;20466;-70
2022/07/03 13:09:13;;;;;;;24.40;2.83;;;29.00;3.10;;;;;;5049287;28;20462;-70